Crianlarich, United Kingdom
Current Conditions -  °F | °C
As of 9:50 AM on Saturday 25 Oct 2014 (Local Time) from EGPF Reporting Station
Rain Showers Rain Showers  
Wind Chill: 52°   Ceiling: 2200
Heat Index: 52°   Visibility: 6mi
Dew Point: 48°   Wind: 21mph
Humidity: 88%   Direction: 230°SW
Pressure: 29.68"   Gusts: NA
Location:  56.39°N, 4.62°W
Report Text: EGPF 250850Z 23018KT 9999 VCSH FEW012 SCT017 BKN022 11/09 Q1005 RERA
Loading
Personal Weather Stations






























Interactive Weather Map
Tropical Storm Tracking
New forecast layout! Learn more

10-Day Weather Forecast

Advertisements
Track Severe Weather on mobile